createdAt,value
2019-02-19T11:27:17.732Z,29.70
2019-02-19T11:32:19.844Z,38.83
2019-02-19T11:37:22.216Z,39.73
2019-02-19T11:42:24.691Z,37.42
2019-02-19T11:47:29.782Z,30.08
2019-02-19T11:52:31.800Z,33.02
2019-02-19T11:57:34.007Z,38.15
2019-02-19T12:08:38.793Z,29.00
2019-02-19T12:14:43.448Z,27.37
2019-02-19T12:19:57.792Z,23.40
2019-02-19T12:30:57.261Z,21.82
2019-02-19T12:36:07.546Z,19.45
2019-02-19T12:47:33.587Z,19.35
2019-02-19T12:52:54.655Z,24.90
2019-02-19T12:58:34.769Z,21.80
2019-02-19T13:49:12.175Z,10.55
2019-02-19T13:55:04.144Z,12.98
2019-02-19T14:00:30.238Z,12.43
2019-02-19T14:17:55.524Z,9.45
2019-02-19T14:28:51.150Z,6.40
2019-02-19T14:34:17.625Z,6.05
2019-02-19T14:39:39.271Z,5.90
2019-02-19T14:45:21.854Z,4.10
2019-02-19T14:51:11.755Z,6.37
2019-02-19T14:58:24.542Z,5.87
2019-02-19T15:03:11.912Z,5.67
2019-02-19T15:08:40.787Z,4.85
2019-02-19T15:14:19.759Z,6.47
2019-02-19T15:19:49.996Z,4.58
2019-02-19T15:25:21.039Z,5.47
2019-02-19T15:30:47.009Z,5.80
2019-02-19T15:36:08.713Z,4.58
2019-02-19T15:41:26.143Z,9.20
2019-02-19T15:46:38.804Z,5.40
2019-02-19T15:51:59.168Z,5.15
2019-02-19T15:57:36.107Z,7.00
2019-02-19T16:02:45.255Z,3.42
2019-02-19T16:07:56.138Z,7.42
2019-02-19T16:13:25.411Z,5.25
2019-02-19T16:18:48.139Z,4.55
2019-02-19T16:24:22.079Z,4.03
2019-02-19T16:29:47.113Z,6.67
2019-02-19T16:35:11.607Z,7.97
2019-02-19T16:40:29.702Z,2.77
2019-02-19T16:45:39.717Z,6.30
2019-02-19T16:51:19.567Z,6.53
2019-02-19T16:56:41.259Z,3.98
2019-02-19T17:01:54.508Z,8.60
2019-02-19T17:07:16.154Z,6.90
2019-02-19T17:12:34.090Z,5.08
2019-02-19T17:17:44.750Z,4.90
2019-02-19T17:23:01.121Z,6.47
2019-02-19T17:28:34.721Z,4.30
2019-02-19T17:33:54.921Z,6.03
2019-02-19T17:39:25.631Z,11.30
2019-02-19T17:44:59.731Z,4.08
2019-02-19T17:50:21.491Z,5.45
2019-02-19T17:55:45.265Z,6.90
2019-02-19T18:01:15.773Z,6.45
2019-02-19T18:07:01.499Z,8.03
2019-02-19T18:59:58.312Z,9.38
2019-02-19T19:05:00.442Z,6.25
2019-02-19T19:10:02.786Z,8.98
2019-02-19T19:15:05.309Z,6.65
2019-02-19T19:20:07.645Z,9.73
2019-02-19T19:25:09.797Z,12.68
2019-02-19T19:31:21.589Z,9.28
2019-02-19T20:09:30.568Z,11.50
2019-02-19T20:16:40.224Z,12.73
2019-02-19T21:11:42.801Z,10.15
2019-02-19T21:55:19.166Z,14.18
2019-02-19T22:00:46.343Z,9.65
2019-02-19T22:07:06.553Z,12.87
2019-02-19T22:26:12.036Z,11.03
2019-02-19T23:03:32.925Z,16.17
2019-02-19T23:16:01.045Z,10.58
2019-02-19T23:53:20.963Z,13.60
